Time;durP1;ratioP1;P1;durP2;ratioP2;P2;SDS_P1;SDS_P2;PMS_P1;PMS_P2;Temp;Humidity;BMP_temperature;BMP_pressure;BME280_temperature;BME280_humidity;BME280_pressure;Samples;Min_cycle;Max_cycle;Signal;HPM_P1;HPM_P2
2022/12/13 00:01:52;;;;;;;21.10;17.50;;;-1.60;1.00;;;;;;5093853;28;20449;-42
2022/12/13 00:04:19;;;;;;;25.50;18.00;;;-1.60;1.00;;;;;;5100446;28;20409;-44
2022/12/13 00:06:46;;;;;;;20.80;17.27;;;-1.60;1.00;;;;;;5100260;28;20738;-45
2022/12/13 00:09:16;;;;;;;24.90;19.13;;;-1.60;1.00;;;;;;5118409;28;20436;-43
2022/12/13 00:11:42;;;;;;;21.87;17.70;;;-1.60;3.60;;;;;;5100182;28;20409;-42
2022/12/13 00:14:08;;;;;;;26.43;19.50;;;-1.60;16.60;;;;;;5117635;28;20815;-43
2022/12/13 00:16:37;;;;;;;28.30;20.00;;;-1.60;29.50;;;;;;5112642;28;20454;-44
2022/12/13 00:19:02;;;;;;;23.53;18.30;;;-1.60;47.80;;;;;;5117489;28;20202;-44
2022/12/13 00:21:30;;;;;;;23.63;18.97;;;-1.60;81.30;;;;;;5099883;28;20449;-44
2022/12/13 00:23:56;;;;;;;24.57;18.23;;;-1.60;99.90;;;;;;5099168;28;20199;-42
2022/12/13 00:26:25;;;;;;;20.97;17.00;;;-1.60;99.90;;;;;;5115750;28;20425;-45
2022/12/13 00:28:51;;;;;;;28.17;20.10;;;-1.60;99.90;;;;;;5117429;28;20405;-43
2022/12/13 00:31:18;;;;;;;21.77;17.87;;;-1.70;99.90;;;;;;5117949;28;20490;-43
2022/12/13 00:33:44;;;;;;;22.10;17.93;;;-1.60;99.90;;;;;;5117666;28;20471;-44
2022/12/13 00:36:10;;;;;;;24.70;18.83;;;-1.70;99.90;;;;;;5117855;28;20433;-46
2022/12/13 00:38:36;;;;;;;22.90;17.73;;;-1.70;99.90;;;;;;5117850;28;20168;-42
2022/12/13 00:41:11;;;;;;;23.87;18.47;;;-1.70;99.90;;;;;;5117747;28;20784;-43
2022/12/13 00:43:37;;;;;;;22.40;17.43;;;-1.70;99.90;;;;;;5118267;28;20421;-43
2022/12/13 00:46:03;;;;;;;23.60;18.40;;;-1.70;99.90;;;;;;5118097;28;20855;-42
2022/12/13 00:48:29;;;;;;;30.83;20.00;;;-1.80;99.90;;;;;;5102196;28;20332;-43
2022/12/13 00:50:54;;;;;;;24.27;18.43;;;-1.80;99.90;;;;;;5122931;28;20573;-41
2022/12/13 00:53:20;;;;;;;23.93;18.73;;;-1.80;99.90;;;;;;5122485;28;20555;-41
2022/12/13 00:55:45;;;;;;;22.90;18.60;;;-1.80;99.90;;;;;;5122903;28;20231;-42
2022/12/13 00:58:11;;;;;;;26.00;20.13;;;-1.80;99.90;;;;;;5122082;28;20176;-42
2022/12/13 01:00:36;;;;;;;25.40;18.80;;;-1.80;99.90;;;;;;5122198;28;20184;-41
2022/12/13 01:03:19;;;;;;;26.50;20.40;;;-1.90;99.90;;;;;;5122731;28;20262;-43
2022/12/13 01:05:48;;;;;;;30.20;21.43;;;-1.90;99.90;;;;;;5122101;28;20518;-42
2022/12/13 01:08:14;;;;;;;25.80;18.07;;;-1.90;99.90;;;;;;5121341;28;20414;-41
2022/12/13 01:10:46;;;;;;;23.97;16.53;;;-2.00;99.90;;;;;;5122177;28;20764;-50
2022/12/13 01:13:12;;;;;;;20.80;16.90;;;-2.00;99.90;;;;;;5122167;28;20575;-42
2022/12/13 01:15:43;;;;;;;25.73;17.33;;;-2.00;99.90;;;;;;5103482;28;20421;-43
2022/12/13 01:18:09;;;;;;;23.23;17.03;;;-2.00;97.10;;;;;;5115473;28;20422;-42
2022/12/13 01:20:35;;;;;;;22.10;16.77;;;-2.10;92.10;;;;;;5101349;28;20430;-42
2022/12/13 01:23:00;;;;;;;25.03;16.70;;;-2.10;91.20;;;;;;5101209;28;20475;-44
2022/12/13 01:25:26;;;;;;;24.13;18.30;;;-2.10;88.00;;;;;;5100905;28;20567;-42
2022/12/13 01:27:52;;;;;;;24.00;16.87;;;-2.10;92.00;;;;;;5104643;28;20179;-45
2022/12/13 01:30:17;;;;;;;20.43;17.50;;;-2.10;99.90;;;;;;5121093;28;20172;-43
2022/12/13 01:32:43;;;;;;;21.60;15.60;;;-2.20;99.90;;;;;;5121027;28;20812;-45
2022/12/13 01:35:08;;;;;;;19.40;15.73;;;-2.20;99.90;;;;;;5120540;28;20176;-45
2022/12/13 01:37:35;;;;;;;24.63;16.77;;;-2.20;99.90;;;;;;5121066;28;20355;-43
2022/12/13 01:40:02;;;;;;;23.60;16.50;;;-2.30;99.90;;;;;;5121042;28;20189;-41
2022/12/13 01:42:29;;;;;;;24.40;17.10;;;-2.10;1.00;;;;;;5120950;28;20406;-42
2022/12/13 01:44:54;;;;;;;19.60;14.63;;;-2.30;1.00;;;;;;5121362;28;20421;-44
2022/12/13 01:47:42;;;;;;;20.70;15.77;;;-2.40;99.90;;;;;;5121669;28;20500;-42
2022/12/13 01:50:33;;;;;;;23.47;16.60;;;-2.80;1.00;;;;;;5103312;28;20183;-41
2022/12/13 01:53:00;;;;;;;20.83;15.87;;;-2.40;99.90;;;;;;5109273;28;20497;-45
2022/12/13 01:55:29;;;;;;;22.93;16.40;;;-2.50;1.00;;;;;;5102779;28;20443;-44
2022/12/13 01:57:57;;;;;;;22.17;16.93;;;-2.60;1.00;;;;;;5121323;28;20409;-44
2022/12/13 02:00:24;;;;;;;24.37;17.77;;;-2.60;1.00;;;;;;5120287;28;20421;-44
2022/12/13 02:02:50;;;;;;;23.20;18.37;;;-2.60;1.00;;;;;;5102604;28;20467;-43
2022/12/13 02:05:30;;;;;;;22.67;16.30;;;-2.60;1.00;;;;;;5102819;28;20429;-43
2022/12/13 02:07:57;;;;;;;22.03;17.17;;;-2.70;1.00;;;;;;5121199;28;20197;-43
2022/12/13 02:10:23;;;;;;;24.07;17.10;;;-2.70;1.00;;;;;;5102535;28;20779;-44
2022/12/13 02:12:49;;;;;;;22.67;16.97;;;-2.70;1.00;;;;;;5120237;28;20501;-44
2022/12/13 02:15:16;;;;;;;24.43;16.23;;;-2.70;1.00;;;;;;5120243;28;20207;-45
2022/12/13 02:18:04;;;;;;;21.57;16.80;;;-2.70;1.00;;;;;;5102759;28;20793;-42
2022/12/13 02:23:58;;;;;;;21.03;16.17;;;-2.80;1.00;;;;;;5120050;28;20547;-43
2022/12/13 02:26:58;;;;;;;23.27;17.00;;;-2.90;1.00;;;;;;5120409;28;20422;-42
2022/12/13 02:30:01;;;;;;;24.00;17.27;;;-2.90;1.00;;;;;;5120052;28;20860;-45
2022/12/13 02:32:59;;;;;;;20.23;15.23;;;-2.90;4.20;;;;;;5120493;28;20456;-45
2022/12/13 02:35:42;;;;;;;25.00;16.17;;;-2.90;28.60;;;;;;5119178;28;20429;-42
2022/12/13 02:38:33;;;;;;;20.23;16.03;;;-2.90;50.50;;;;;;5101826;28;20405;-42
2022/12/13 02:40:59;;;;;;;24.27;17.57;;;-2.90;40.80;;;;;;5118491;28;20418;-44
2022/12/13 02:43:29;;;;;;;21.50;16.93;;;-2.90;59.70;;;;;;5118435;28;20761;-45
2022/12/13 02:45:58;;;;;;;25.30;17.67;;;-3.00;74.50;;;;;;5118514;28;20194;-43
2022/12/13 02:48:27;;;;;;;22.50;17.37;;;-3.00;73.90;;;;;;5118452;28;20603;-42
2022/12/13 02:50:55;;;;;;;22.77;17.97;;;-3.10;1.00;;;;;;5118825;28;20435;-44
2022/12/13 02:53:21;;;;;;;25.03;17.93;;;-3.10;1.00;;;;;;5119069;28;20453;-42
2022/12/13 02:55:47;;;;;;;24.50;17.00;;;-3.10;1.00;;;;;;5119904;28;20482;-44
2022/12/13 02:58:21;;;;;;;23.43;17.20;;;-3.10;1.00;;;;;;5119489;28;20413;-42
2022/12/13 03:01:08;;;;;;;24.53;18.63;;;-3.10;1.00;;;;;;5119737;28;20240;-43
2022/12/13 03:03:58;;;;;;;25.93;18.37;;;-3.20;1.00;;;;;;5119401;28;20409;-43
2022/12/13 03:06:42;;;;;;;25.67;18.27;;;-3.10;1.00;;;;;;5119746;28;20412;-43
2022/12/13 03:09:49;;;;;;;26.70;18.30;;;-3.10;1.00;;;;;;5119192;28;20837;-42
2022/12/13 03:15:29;;;;;;;25.40;16.90;;;-3.20;1.00;;;;;;5103854;28;20452;-43
2022/12/13 03:18:03;;;;;;;26.90;17.33;;;-3.20;1.00;;;;;;5119134;28;20736;-43
2022/12/13 03:20:29;;;;;;;22.67;16.80;;;-3.20;1.00;;;;;;5101221;28;20451;-42
2022/12/13 03:22:56;;;;;;;22.07;15.90;;;-3.20;1.00;;;;;;5099911;28;20835;-42
2022/12/13 03:25:25;;;;;;;26.10;17.47;;;-3.30;1.00;;;;;;5118792;28;20421;-44
2022/12/13 03:27:51;;;;;;;22.20;17.63;;;-3.30;59.90;;;;;;5101039;28;20470;-42
2022/12/13 03:30:17;;;;;;;22.47;18.40;;;-3.20;99.90;;;;;;5116129;28;20425;-42
2022/12/13 03:32:42;;;;;;;21.63;15.90;;;-3.00;17.60;;;;;;5117170;28;20457;-44
2022/12/13 03:35:08;;;;;;;25.70;17.00;;;-3.30;31.20;;;;;;5118267;28;20565;-42
2022/12/13 03:37:34;;;;;;;19.93;16.70;;;-3.30;61.50;;;;;;5118244;28;20179;-46
2022/12/13 03:39:59;;;;;;;22.13;18.03;;;-3.30;1.00;;;;;;5104872;28;20208;-43
2022/12/13 03:42:25;;;;;;;25.47;16.70;;;-3.30;1.00;;;;;;5080484;28;20282;-42
2022/12/13 03:44:51;;;;;;;23.17;17.10;;;-3.30;1.00;;;;;;5098060;28;20180;-42
2022/12/13 03:47:16;;;;;;;23.13;16.60;;;-3.30;1.00;;;;;;5097314;28;20183;-43
2022/12/13 03:49:42;;;;;;;22.13;15.90;;;-3.30;1.00;;;;;;5079745;28;20189;-44
2022/12/13 03:52:08;;;;;;;22.97;17.77;;;-3.40;1.00;;;;;;5096770;28;20200;-44
2022/12/13 03:54:33;;;;;;;22.40;17.37;;;-3.40;1.00;;;;;;5097453;28;20231;-42
2022/12/13 03:57:00;;;;;;;21.57;15.70;;;-3.40;1.00;;;;;;5097764;28;20200;-41
2022/12/13 03:59:26;;;;;;;19.10;16.00;;;-3.40;1.00;;;;;;5096890;28;20185;-42
2022/12/13 04:01:52;;;;;;;23.13;17.03;;;-3.40;1.00;;;;;;5097847;28;20422;-45
2022/12/13 04:04:17;;;;;;;21.87;16.43;;;-3.40;1.00;;;;;;5098193;28;20414;-42
2022/12/13 04:06:43;;;;;;;21.40;15.70;;;-3.40;1.00;;;;;;5096796;28;20236;-41
2022/12/13 04:09:08;;;;;;;19.80;15.30;;;-3.40;1.00;;;;;;5095588;28;20557;-42
2022/12/13 04:14:18;;;;;;;19.50;15.10;;;-3.30;22.70;;;;;;5095680;28;20233;-42
2022/12/13 04:16:44;;;;;;;20.47;15.40;;;-3.30;36.00;;;;;;5094859;28;20694;-42
2022/12/13 04:19:10;;;;;;;21.47;15.67;;;-3.30;55.70;;;;;;5093455;28;20271;-44
2022/12/13 04:21:35;;;;;;;21.40;16.10;;;-3.30;81.00;;;;;;5094738;28;20184;-42
2022/12/13 04:24:01;;;;;;;22.73;16.47;;;-3.30;94.80;;;;;;5098636;28;20168;-46
2022/12/13 04:26:27;;;;;;;19.30;15.07;;;-3.20;89.20;;;;;;5099821;28;20188;-43
2022/12/13 04:28:52;;;;;;;24.33;17.50;;;-3.30;75.40;;;;;;5099458;28;20446;-45
2022/12/13 04:31:18;;;;;;;25.60;17.00;;;-3.30;69.20;;;;;;5100370;28;20414;-42
2022/12/13 04:33:44;;;;;;;21.90;15.23;;;-3.30;64.20;;;;;;5099588;28;20541;-42
2022/12/13 04:36:09;;;;;;;21.37;16.53;;;-3.30;55.60;;;;;;5099630;28;20204;-43
2022/12/13 04:38:35;;;;;;;27.43;18.90;;;-3.40;47.60;;;;;;5099590;28;20586;-46
2022/12/13 04:41:10;;;;;;;23.30;19.17;;;-3.40;42.20;;;;;;5099031;28;20184;-44
2022/12/13 04:43:35;;;;;;;23.00;17.57;;;-3.40;39.30;;;;;;5081472;28;20176;-43
2022/12/13 04:46:01;;;;;;;26.07;19.23;;;-3.40;37.30;;;;;;5097600;28;20893;-44
2022/12/13 04:48:26;;;;;;;23.97;18.83;;;-3.40;31.40;;;;;;5095746;28;20234;-42
2022/12/13 04:50:52;;;;;;;27.70;18.50;;;-3.40;25.90;;;;;;5095116;28;20204;-43
2022/12/13 04:53:17;;;;;;;25.10;19.47;;;-3.50;20.20;;;;;;5096305;28;20560;-42
2022/12/13 04:55:43;;;;;;;21.77;17.10;;;-3.50;15.80;;;;;;5097657;28;20180;-42
2022/12/13 04:58:09;;;;;;;23.63;17.80;;;-3.50;12.80;;;;;;5098547;28;20207;-41
2022/12/13 05:00:34;;;;;;;23.00;17.10;;;-3.50;8.30;;;;;;5099164;28;20570;-42
2022/12/13 05:03:00;;;;;;;24.70;19.30;;;-3.60;2.30;;;;;;5099631;28;20177;-42
2022/12/13 05:05:25;;;;;;;24.70;18.20;;;-3.60;1.00;;;;;;5099694;28;20237;-42
2022/12/13 05:07:51;;;;;;;23.30;17.80;;;-3.60;1.00;;;;;;5098833;28;20196;-42
2022/12/13 05:10:16;;;;;;;24.73;16.90;;;-3.60;1.00;;;;;;5099626;28;20275;-42
2022/12/13 05:12:42;;;;;;;26.50;18.07;;;-3.60;1.00;;;;;;5097774;28;20239;-42
2022/12/13 05:15:08;;;;;;;23.50;17.20;;;-3.70;1.00;;;;;;5097269;28;20180;-41
2022/12/13 05:17:33;;;;;;;23.50;16.87;;;-3.70;1.00;;;;;;5097514;28;20169;-46
2022/12/13 05:19:59;;;;;;;20.47;16.43;;;-3.70;1.00;;;;;;5098600;28;20188;-41
2022/12/13 05:22:25;;;;;;;23.13;17.70;;;-3.70;1.00;;;;;;5098092;28;20172;-41
2022/12/13 05:24:51;;;;;;;24.93;16.47;;;-3.70;1.00;;;;;;5097306;28;20185;-41
2022/12/13 05:27:17;;;;;;;22.67;17.17;;;-3.80;1.00;;;;;;5099754;28;20479;-41
2022/12/13 05:29:42;;;;;;;23.43;17.57;;;-3.80;1.00;;;;;;5098953;28;20214;-41
2022/12/13 05:32:08;;;;;;;25.50;18.57;;;-3.80;1.00;;;;;;5099027;28;20575;-41
2022/12/13 05:34:33;;;;;;;25.30;18.20;;;-3.80;1.00;;;;;;5097016;28;20180;-42
2022/12/13 05:36:59;;;;;;;24.90;19.50;;;-3.80;1.00;;;;;;5094843;28;20248;-42
2022/12/13 05:39:25;;;;;;;28.07;20.43;;;-3.80;1.00;;;;;;5077655;28;20165;-42
2022/12/13 05:41:51;;;;;;;25.90;19.17;;;-3.90;1.00;;;;;;5077234;28;20172;-42
2022/12/13 05:44:16;;;;;;;24.87;18.30;;;-3.90;1.00;;;;;;5076889;28;20179;-43
2022/12/13 05:46:42;;;;;;;22.10;18.00;;;-3.90;1.00;;;;;;5096883;28;20256;-42
2022/12/13 05:49:07;;;;;;;21.57;18.30;;;-3.90;1.00;;;;;;5097841;28;20199;-43
2022/12/13 05:51:33;;;;;;;24.50;17.77;;;-4.00;1.00;;;;;;5099843;28;20366;-42
2022/12/13 05:53:59;;;;;;;27.13;17.80;;;-4.00;1.00;;;;;;5080380;28;20230;-43
2022/12/13 05:56:24;;;;;;;26.30;18.47;;;-4.00;1.00;;;;;;5097061;28;20188;-43
2022/12/13 05:58:50;;;;;;;24.67;18.40;;;-4.00;1.00;;;;;;5096961;28;20173;-42
2022/12/13 06:01:16;;;;;;;23.50;17.37;;;-4.00;1.00;;;;;;5095856;28;20207;-41
2022/12/13 06:03:42;;;;;;;25.60;18.90;;;-4.10;1.00;;;;;;5094005;28;20200;-44
2022/12/13 06:06:20;;;;;;;25.00;19.23;;;-4.10;1.00;;;;;;5093601;28;20249;-41
2022/12/13 06:08:46;;;;;;;24.53;18.57;;;-4.10;1.00;;;;;;5092214;28;20454;-42
2022/12/13 06:11:12;;;;;;;27.47;18.70;;;-4.10;1.00;;;;;;5098954;28;20953;-42
2022/12/13 06:13:41;;;;;;;25.90;18.67;;;-4.10;1.00;;;;;;5115866;28;20227;-42
2022/12/13 06:16:06;;;;;;;30.27;20.43;;;-4.10;1.00;;;;;;5088394;28;20592;-43
2022/12/13 06:18:33;;;;;;;29.97;21.47;;;-4.20;1.00;;;;;;5093363;28;20406;-43
2022/12/13 06:21:02;;;;;;;32.80;23.53;;;-4.20;1.00;;;;;;5090738;28;20176;-42
2022/12/13 06:23:29;;;;;;;27.87;20.63;;;-4.20;1.00;;;;;;5090650;28;20769;-42
2022/12/13 06:25:56;;;;;;;28.67;21.40;;;-4.20;1.00;;;;;;5104915;28;20446;-42
2022/12/13 06:28:22;;;;;;;27.60;21.27;;;-4.20;1.00;;;;;;5113574;28;20443;-40
2022/12/13 06:30:51;;;;;;;26.10;20.10;;;-4.30;1.00;;;;;;5110666;28;20428;-43
2022/12/13 06:33:18;;;;;;;27.67;20.40;;;-4.30;1.00;;;;;;5110126;28;20469;-40
2022/12/13 06:35:44;;;;;;;26.17;18.50;;;-4.30;1.00;;;;;;5109789;28;20422;-41
2022/12/13 06:38:09;;;;;;;25.93;19.07;;;-4.30;1.00;;;;;;5111977;28;20401;-41
2022/12/13 06:40:35;;;;;;;26.20;18.83;;;-4.30;1.00;;;;;;5075559;28;20247;-41
2022/12/13 06:43:00;;;;;;;25.03;19.63;;;-4.30;1.00;;;;;;5107809;28;20172;-41
2022/12/13 06:45:26;;;;;;;24.17;18.77;;;-4.30;1.00;;;;;;5108014;28;20203;-43
2022/12/13 06:47:52;;;;;;;23.23;17.73;;;-4.30;1.00;;;;;;5107150;28;20178;-44
2022/12/13 06:50:17;;;;;;;23.87;17.60;;;-4.30;1.00;;;;;;5105827;28;20171;-42
2022/12/13 06:52:45;;;;;;;24.00;16.53;;;-4.40;1.00;;;;;;5106810;28;20235;-42
2022/12/13 06:55:11;;;;;;;23.63;18.03;;;-4.40;1.00;;;;;;5107303;28;20446;-42
2022/12/13 06:57:37;;;;;;;24.20;17.17;;;-4.30;1.00;;;;;;5092332;28;20417;-40
2022/12/13 07:00:04;;;;;;;26.47;16.97;;;-4.30;1.00;;;;;;5108728;28;21053;-42
2022/12/13 07:02:29;;;;;;;25.13;17.50;;;-4.30;1.00;;;;;;5108376;28;20463;-40
2022/12/13 07:04:55;;;;;;;26.10;18.43;;;-4.30;1.00;;;;;;5109743;28;20420;-41
2022/12/13 07:07:22;;;;;;;24.40;18.03;;;-4.30;1.00;;;;;;5110673;28;20437;-42
2022/12/13 07:09:47;;;;;;;25.50;17.53;;;-4.30;1.00;;;;;;5109517;28;20172;-42
2022/12/13 07:12:13;;;;;;;24.33;16.83;;;-4.30;1.00;;;;;;5094040;28;20596;-43
2022/12/13 07:14:38;;;;;;;23.90;17.23;;;-4.30;1.00;;;;;;5091575;28;20180;-42
2022/12/13 07:17:04;;;;;;;24.73;16.27;;;-4.30;1.00;;;;;;5091130;28;20290;-41
2022/12/13 07:19:30;;;;;;;22.60;16.40;;;-4.30;1.00;;;;;;5093808;28;20553;-40
2022/12/13 07:21:56;;;;;;;24.93;17.83;;;-4.30;1.00;;;;;;5094279;28;20259;-43
2022/12/13 07:24:21;;;;;;;22.67;16.60;;;-4.20;1.00;;;;;;5108705;28;20541;-42
2022/12/13 07:26:47;;;;;;;23.80;18.27;;;-4.20;1.00;;;;;;5115220;28;20179;-42
2022/12/13 07:29:13;;;;;;;34.07;22.50;;;-4.20;1.00;;;;;;5114864;28;20182;-41
2022/12/13 07:31:38;;;;;;;33.67;22.30;;;-4.20;1.00;;;;;;5113051;28;20186;-41
2022/12/13 07:34:04;;;;;;;37.83;23.00;;;-4.10;1.00;;;;;;5101723;28;20718;-44
2022/12/13 07:36:30;;;;;;;36.10;23.53;;;-4.10;1.00;;;;;;5091856;28;20277;-43
2022/12/13 07:38:56;;;;;;;36.67;24.37;;;-4.10;1.00;;;;;;5096773;28;20168;-42
2022/12/13 07:41:23;;;;;;;38.43;25.33;;;-4.00;1.00;;;;;;5113066;28;20184;-41
2022/12/13 07:43:49;;;;;;;39.00;24.77;;;-4.00;1.00;;;;;;5112588;28;20498;-42
2022/12/13 07:46:14;;;;;;;40.03;26.37;;;-3.90;1.00;;;;;;5110906;28;20438;-43
2022/12/13 07:48:40;;;;;;;39.80;24.57;;;-3.90;1.00;;;;;;5112381;28;20287;-41
2022/12/13 07:51:10;;;;;;;35.17;23.57;;;-3.80;1.00;;;;;;5106264;28;20188;-40
2022/12/13 07:53:36;;;;;;;35.57;25.67;;;-3.80;1.00;;;;;;5092550;28;20701;-42
2022/12/13 07:56:06;;;;;;;31.97;22.93;;;-3.70;1.00;;;;;;5092715;28;20430;-41
2022/12/13 07:58:32;;;;;;;33.93;22.20;;;-3.60;1.00;;;;;;5098467;28;20184;-43
2022/12/13 08:00:59;;;;;;;33.60;26.03;;;-3.50;1.00;;;;;;5112364;28;20426;-42
2022/12/13 08:03:26;;;;;;;34.83;23.87;;;-3.40;1.00;;;;;;5112837;28;20187;-42
2022/12/13 08:06:02;;;;;;;36.50;23.30;;;-3.30;1.00;;;;;;5112178;28;20426;-42
2022/12/13 08:08:29;;;;;;;30.27;22.43;;;-3.20;1.00;;;;;;5094075;28;20440;-42
2022/12/13 08:10:54;;;;;;;32.63;23.77;;;-3.10;1.00;;;;;;5111915;28;20509;-42
2022/12/13 08:13:20;;;;;;;37.77;25.63;;;-2.90;1.00;;;;;;5112191;28;20489;-41
2022/12/13 08:15:46;;;;;;;34.80;23.43;;;-2.80;1.00;;;;;;5110560;28;20267;-43
2022/12/13 08:18:11;;;;;;;27.77;21.93;;;-2.60;1.00;;;;;;5111454;28;20202;-41
2022/12/13 08:20:37;;;;;;;29.67;21.20;;;-2.40;1.00;;;;;;5111716;28;20450;-42
2022/12/13 08:23:02;;;;;;;31.60;23.37;;;-2.20;1.00;;;;;;5114321;28;20581;-40
2022/12/13 08:25:29;;;;;;;29.50;20.93;;;-2.00;1.00;;;;;;5114592;28;20221;-43
2022/12/13 08:27:54;;;;;;;28.97;21.37;;;-1.80;1.00;;;;;;5111776;28;20504;-41
2022/12/13 08:30:20;;;;;;;25.50;20.10;;;-1.60;1.00;;;;;;5114277;28;20417;-41
2022/12/13 08:32:48;;;;;;;26.53;19.93;;;-1.50;1.00;;;;;;5114402;28;20203;-44
2022/12/13 08:35:14;;;;;;;37.23;21.53;;;-1.30;1.00;;;;;;5114191;28;20168;-43
2022/12/13 08:37:39;;;;;;;27.33;21.37;;;-1.20;1.00;;;;;;5112285;28;20432;-40
2022/12/13 08:40:06;;;;;;;27.47;19.37;;;-1.00;1.00;;;;;;5111286;28;20240;-43
2022/12/13 08:42:31;;;;;;;33.10;22.63;;;-0.80;1.00;;;;;;5091646;28;20203;-41
2022/12/13 08:44:57;;;;;;;30.10;20.97;;;-0.60;1.00;;;;;;5109163;28;20733;-44
2022/12/13 08:47:24;;;;;;;28.10;18.97;;;-0.40;1.00;;;;;;5111942;28;20180;-42
2022/12/13 08:49:50;;;;;;;28.33;20.70;;;-0.10;1.00;;;;;;5111372;28;20180;-42
2022/12/13 08:52:18;;;;;;;27.83;20.43;;;0.10;1.00;;;;;;5110469;28;20429;-42
2022/12/13 08:54:43;;;;;;;26.40;20.27;;;0.30;1.00;;;;;;5112562;28;20827;-41
2022/12/13 08:57:09;;;;;;;27.63;21.20;;;0.60;1.00;;;;;;5111623;28;20453;-41
2022/12/13 08:59:35;;;;;;;25.40;20.10;;;0.80;1.00;;;;;;5112642;28;20163;-42
2022/12/13 09:02:00;;;;;;;22.30;18.73;;;0.90;1.00;;;;;;5112110;28;20176;-43
2022/12/13 09:04:26;;;;;;;22.77;18.10;;;1.10;1.00;;;;;;5111182;28;20176;-43
2022/12/13 09:06:51;;;;;;;24.43;18.47;;;1.30;1.00;;;;;;5111124;28;20200;-45
2022/12/13 09:09:17;;;;;;;22.63;15.00;;;1.60;1.00;;;;;;5111641;28;20740;-42
2022/12/13 09:11:42;;;;;;;18.90;15.20;;;1.80;1.00;;;;;;5115189;28;20559;-42
2022/12/13 09:14:08;;;;;;;18.53;14.27;;;2.20;1.00;;;;;;5097500;28;20199;-43
2022/12/13 09:16:36;;;;;;;19.20;15.10;;;2.60;1.00;;;;;;5116202;28;20172;-45
2022/12/13 09:19:04;;;;;;;15.47;13.00;;;2.90;1.00;;;;;;5117088;28;20632;-42
2022/12/13 09:21:30;;;;;;;15.63;6.93;;;3.40;1.00;;;;;;5109301;28;20444;-47
2022/12/13 09:23:55;;;;;;;27.07;12.53;;;5.60;1.00;;;;;;5108603;28;20422;-47
2022/12/13 09:26:21;;;;;;;17.50;10.70;;;7.50;1.00;;;;;;5099038;28;20207;-48
2022/12/13 09:28:46;;;;;;;13.00;9.80;;;9.10;1.00;;;;;;5076191;28;20180;-47
2022/12/13 09:31:14;;;;;;;14.30;11.80;;;10.10;1.00;;;;;;5108681;28;20688;-44
2022/12/13 09:33:40;;;;;;;14.30;12.20;;;10.50;1.00;;;;;;5115948;28;20195;-45
2022/12/13 09:36:07;;;;;;;17.80;14.33;;;10.80;1.00;;;;;;5114825;28;20432;-45
2022/12/13 09:38:34;;;;;;;15.63;13.90;;;11.00;1.00;;;;;;5115073;28;20432;-44
2022/12/13 09:41:11;;;;;;;16.43;14.03;;;10.90;74.80;;;;;;5116547;28;20444;-44
2022/12/13 09:43:37;;;;;;;17.20;14.17;;;10.80;1.00;;;;;;5115017;28;20425;-46
2022/12/13 09:46:07;;;;;;;19.17;15.20;;;10.70;1.00;;;;;;5115597;28;20444;-47
2022/12/13 09:48:33;;;;;;;17.23;14.80;;;10.60;1.00;;;;;;5081603;28;20435;-46
2022/12/13 09:50:59;;;;;;;17.03;13.90;;;10.60;1.00;;;;;;5091981;28;20445;-44
2022/12/13 09:53:25;;;;;;;16.17;14.40;;;10.80;1.00;;;;;;5101024;28;20878;-45
2022/12/13 09:55:51;;;;;;;18.20;14.30;;;11.00;1.00;;;;;;5106780;28;20256;-44
2022/12/13 09:58:20;;;;;;;14.67;12.40;;;11.20;1.00;;;;;;5116461;28;20183;-44
2022/12/13 10:04:11;;;;;;;14.67;12.30;;;11.30;1.00;;;;;;5103940;28;20420;-45
2022/12/13 10:06:37;;;;;;;15.53;13.80;;;11.30;1.00;;;;;;5102627;28;20448;-47
2022/12/13 10:09:07;;;;;;;15.83;13.43;;;11.40;1.00;;;;;;5114780;28;20406;-51
2022/12/13 10:11:34;;;;;;;15.93;13.27;;;11.80;1.00;;;;;;5099863;28;20180;-48
2022/12/13 10:14:15;;;;;;;14.37;12.73;;;12.10;1.00;;;;;;5096060;28;20508;-47
2022/12/13 10:17:08;;;;;;;15.30;12.97;;;12.30;1.00;;;;;;5113924;28;20449;-45
2022/12/13 10:19:42;;;;;;;16.53;14.77;;;12.70;1.00;;;;;;5093742;28;20441;-45
2022/12/13 10:22:12;;;;;;;15.60;13.53;;;12.70;1.00;;;;;;5092472;28;20411;-49
2022/12/13 10:24:46;;;;;;;16.00;14.30;;;12.90;1.00;;;;;;5095130;28;20423;-47
2022/12/13 10:27:53;;;;;;;15.20;13.70;;;13.30;1.00;;;;;;5113307;28;20500;-45
2022/12/13 10:30:21;;;;;;;15.37;13.53;;;13.60;1.00;;;;;;5078208;28;20433;-46
2022/12/13 10:33:01;;;;;;;14.40;10.57;;;14.00;1.00;;;;;;5111463;28;20459;-46
2022/12/13 10:35:28;;;;;;;16.10;12.77;;;14.50;1.00;;;;;;5094252;28;20451;-47
2022/12/13 10:37:55;;;;;;;15.90;14.30;;;14.90;1.00;;;;;;5115683;28;20562;-45
2022/12/13 10:40:31;;;;;;;15.00;13.20;;;15.30;1.00;;;;;;5113368;28;20801;-50
2022/12/13 10:43:16;;;;;;;14.50;12.23;;;15.70;1.00;;;;;;5113263;28;20428;-46
2022/12/13 10:45:43;;;;;;;15.90;12.00;;;16.00;1.00;;;;;;5109393;28;20445;-46
2022/12/13 10:48:20;;;;;;;12.80;11.50;;;16.00;1.00;;;;;;5089376;28;20418;-46
2022/12/13 10:50:56;;;;;;;14.03;12.63;;;16.00;1.00;;;;;;5079026;28;20512;-45
2022/12/13 10:53:27;;;;;;;14.17;12.67;;;15.90;1.00;;;;;;5116021;28;20468;-44
2022/12/13 10:55:56;;;;;;;12.73;11.50;;;16.10;1.00;;;;;;5116503;28;20457;-44
2022/12/13 10:58:21;;;;;;;14.03;12.47;;;16.00;1.00;;;;;;5117044;28;20447;-46
2022/12/13 11:00:48;;;;;;;13.90;12.50;;;16.20;1.00;;;;;;5112963;28;20426;-46
2022/12/13 11:03:33;;;;;;;15.17;13.57;;;16.20;1.00;;;;;;5094822;28;20467;-43
2022/12/13 11:06:16;;;;;;;12.80;11.50;;;16.00;1.00;;;;;;5112970;28;20437;-44
2022/12/13 11:08:42;;;;;;;13.90;12.50;;;16.30;1.00;;;;;;5108162;28;20449;-46
2022/12/13 11:11:10;;;;;;;14.60;13.10;;;16.50;1.00;;;;;;5099461;28;20454;-44
2022/12/13 11:13:44;;;;;;;13.23;11.93;;;16.90;1.00;;;;;;5086384;28;20756;-46
2022/12/13 11:16:29;;;;;;;14.47;12.97;;;17.10;1.00;;;;;;5096120;28;20518;-45
2022/12/13 11:18:58;;;;;;;11.50;10.40;;;17.30;1.00;;;;;;5107772;28;20816;-44
2022/12/13 11:21:29;;;;;;;13.83;12.53;;;17.50;1.00;;;;;;5096374;28;20521;-45
2022/12/13 11:23:58;;;;;;;13.40;11.83;;;17.50;1.00;;;;;;5091596;28;20716;-43
2022/12/13 11:26:44;;;;;;;11.63;10.43;;;17.30;1.00;;;;;;5090211;28;20426;-45
2022/12/13 11:29:31;;;;;;;13.17;11.20;;;16.90;1.00;;;;;;5091496;28;20418;-47
2022/12/13 11:32:15;;;;;;;12.33;11.03;;;16.50;99.90;;;;;;5103059;28;20724;-45
2022/12/13 11:35:14;;;;;;;12.70;11.40;;;16.30;99.90;;;;;;5094151;28;20438;-44
2022/12/13 11:37:52;;;;;;;11.97;10.40;;;16.20;99.90;;;;;;5098916;28;20410;-46
2022/12/13 11:40:27;;;;;;;6.07;4.43;;;16.20;99.90;;;;;;5096423;28;20414;-48
2022/12/13 11:42:56;;;;;;;5.27;4.50;;;16.60;1.00;;;;;;5094719;28;20402;-46
2022/12/13 11:45:38;;;;;;;7.20;5.27;;;17.10;1.00;;;;;;5094487;28;20468;-46
2022/12/13 11:48:20;;;;;;;6.83;5.90;;;17.60;1.00;;;;;;5096505;28;20900;-45
2022/12/13 11:50:47;;;;;;;9.67;8.50;;;18.10;1.00;;;;;;5093615;28;20426;-44
2022/12/13 11:53:44;;;;;;;11.40;10.20;;;18.10;1.00;;;;;;5092593;28;20490;-47
2022/12/13 11:56:19;;;;;;;11.33;10.33;;;17.80;1.00;;;;;;5093518;28;20521;-44
2022/12/13 11:58:49;;;;;;;11.57;10.37;;;17.50;1.00;;;;;;5093646;28;20410;-46
2022/12/13 12:01:26;;;;;;;12.20;11.00;;;17.20;1.00;;;;;;5094595;28;20921;-46
2022/12/13 12:04:02;;;;;;;12.07;10.83;;;17.10;1.00;;;;;;5092999;28;20483;-45
2022/12/13 12:06:32;;;;;;;11.47;10.30;;;17.00;1.00;;;;;;5093562;28;20426;-46
2022/12/13 12:09:00;;;;;;;12.60;11.40;;;17.10;1.00;;;;;;5091560;28;20418;-48
2022/12/13 12:11:50;;;;;;;10.13;9.23;;;17.10;1.00;;;;;;5092593;28;20438;-44
2022/12/13 12:14:40;;;;;;;10.63;8.80;;;16.90;1.00;;;;;;5090079;28;20470;-45
2022/12/13 12:17:08;;;;;;;11.90;10.67;;;16.90;1.00;;;;;;5109583;28;20430;-49
2022/12/13 12:19:41;;;;;;;12.93;11.63;;;17.00;1.00;;;;;;5111405;28;20421;-47
2022/12/13 12:22:32;;;;;;;10.87;9.47;;;17.30;1.00;;;;;;5110701;28;20429;-45
2022/12/13 12:25:09;;;;;;;13.13;10.87;;;17.70;1.00;;;;;;5112766;28;20420;-46
2022/12/13 12:27:55;;;;;;;11.03;9.90;;;17.80;1.00;;;;;;5110137;28;20838;-45
2022/12/13 12:30:35;;;;;;;12.20;10.87;;;17.90;1.00;;;;;;5111242;28;20501;-47
2022/12/13 12:33:07;;;;;;;11.83;10.43;;;18.00;1.00;;;;;;5111901;28;20742;-49
2022/12/13 12:35:36;;;;;;;11.87;10.00;;;18.10;1.00;;;;;;5114041;28;20425;-45
2022/12/13 12:38:04;;;;;;;10.53;9.50;;;18.20;1.00;;;;;;5111097;28;20496;-46
2022/12/13 12:40:36;;;;;;;11.17;10.07;;;18.30;1.00;;;;;;5111694;28;20820;-44
2022/12/13 12:43:14;;;;;;;11.03;9.87;;;18.30;1.00;;;;;;5110605;28;20470;-45
2022/12/13 12:46:05;;;;;;;10.27;9.27;;;18.50;1.00;;;;;;5116165;28;20635;-46
2022/12/13 12:48:49;;;;;;;10.30;9.20;;;18.50;1.00;;;;;;5116022;28;20413;-47
2022/12/13 12:51:27;;;;;;;11.63;10.07;;;18.30;99.90;;;;;;5111054;28;20465;-45
2022/12/13 12:54:08;;;;;;;11.20;9.83;;;18.10;99.90;;;;;;5115287;28;20459;-45
2022/12/13 12:56:41;;;;;;;13.13;10.20;;;17.80;99.90;;;;;;5115869;28;20405;-44
2022/12/13 12:59:26;;;;;;;11.00;10.00;;;17.60;99.90;;;;;;5115579;28;20423;-47
2022/12/13 13:01:56;;;;;;;10.40;9.30;;;17.10;99.90;;;;;;5114781;28;20430;-44